createdAt,value
2023-04-17T00:01:06.718Z,10.30
2023-04-17T00:03:34.159Z,10.10
2023-04-17T00:06:01.747Z,10.10
2023-04-17T00:08:29.205Z,10.20
2023-04-17T00:11:06.470Z,10.30
2023-04-17T00:13:36.275Z,10.20
2023-04-17T00:16:03.783Z,10.00
2023-04-17T00:18:31.191Z,9.90
2023-04-17T00:20:58.616Z,9.90
2023-04-17T00:23:26.474Z,9.90
2023-04-17T00:25:53.860Z,10.00
2023-04-17T00:28:21.291Z,10.00
2023-04-17T00:30:48.781Z,10.00
2023-04-17T00:33:16.294Z,10.10
2023-04-17T00:35:43.684Z,10.10
2023-04-17T00:38:11.047Z,10.30
2023-04-17T00:40:38.468Z,10.30
2023-04-17T00:43:07.147Z,10.20
2023-04-17T00:45:35.367Z,10.20
2023-04-17T00:48:06.832Z,10.20
2023-04-17T00:50:34.846Z,10.20
2023-04-17T00:53:02.480Z,10.10
2023-04-17T00:55:32.308Z,10.00
2023-04-17T00:58:00.197Z,9.90
2023-04-17T01:00:27.644Z,9.90
2023-04-17T01:02:58.104Z,9.90
2023-04-17T01:05:27.451Z,9.80
2023-04-17T01:07:56.937Z,9.80
2023-04-17T01:10:24.519Z,9.90
2023-04-17T01:13:05.488Z,9.90
2023-04-17T01:15:34.984Z,9.90
2023-04-17T01:18:03.168Z,10.00
2023-04-17T01:20:31.378Z,10.00
2023-04-17T01:22:59.568Z,10.00
2023-04-17T01:25:28.321Z,10.00
2023-04-17T01:27:57.035Z,10.00
2023-04-17T01:30:24.899Z,10.00
2023-04-17T01:32:59.629Z,9.90
2023-04-17T01:35:27.366Z,9.80
2023-04-17T01:37:55.912Z,9.60
2023-04-17T01:40:23.384Z,9.50
2023-04-17T01:42:50.787Z,9.50
2023-04-17T01:45:18.294Z,9.50
2023-04-17T01:47:45.849Z,9.40
2023-04-17T01:50:13.583Z,9.30
2023-04-17T01:52:40.999Z,9.40
2023-04-17T01:55:09.606Z,9.40
2023-04-17T01:57:37.361Z,9.30
2023-04-17T02:00:09.473Z,9.30
2023-04-17T02:02:40.203Z,9.20
2023-04-17T02:05:08.105Z,9.30
2023-04-17T02:07:35.555Z,9.20
2023-04-17T02:10:03.039Z,9.30
2023-04-17T02:12:30.701Z,9.30
2023-04-17T02:15:01.186Z,9.20
2023-04-17T02:17:28.808Z,9.20
2023-04-17T02:19:56.619Z,9.30
2023-04-17T02:22:24.042Z,9.30
2023-04-17T02:24:52.230Z,9.40
2023-04-17T02:27:20.502Z,9.40
2023-04-17T02:29:47.875Z,9.30
2023-04-17T02:32:16.860Z,9.30
2023-04-17T02:34:45.202Z,9.30
2023-04-17T02:37:14.636Z,9.20
2023-04-17T02:39:42.068Z,9.20
2023-04-17T02:42:10.232Z,9.20
2023-04-17T02:44:37.765Z,9.10
2023-04-17T02:47:05.492Z,9.10
2023-04-17T02:49:34.090Z,9.00
2023-04-17T02:52:01.552Z,9.00
2023-04-17T02:54:30.325Z,9.00
2023-04-17T02:56:58.653Z,9.00
2023-04-17T02:59:26.978Z,9.00
2023-04-17T03:01:54.565Z,9.00
2023-04-17T03:04:22.085Z,8.90
2023-04-17T03:06:49.559Z,9.00
2023-04-17T03:09:18.280Z,9.00
2023-04-17T03:11:45.674Z,9.10
2023-04-17T03:14:13.068Z,9.10
2023-04-17T03:16:40.710Z,9.10
2023-04-17T03:19:08.672Z,9.10
2023-04-17T03:21:36.767Z,9.10
2023-04-17T03:24:04.563Z,9.10
2023-04-17T03:26:32.075Z,9.10
2023-04-17T03:29:05.092Z,9.10
2023-04-17T03:31:32.568Z,9.10
2023-04-17T03:33:59.953Z,9.10
2023-04-17T03:36:28.389Z,9.10
2023-04-17T03:38:57.753Z,9.10
2023-04-17T03:41:25.365Z,9.10
2023-04-17T03:43:52.859Z,9.00
2023-04-17T03:46:20.348Z,9.10
2023-04-17T03:48:47.795Z,9.20
2023-04-17T03:51:16.873Z,9.40
2023-04-17T03:53:44.636Z,9.40
2023-04-17T03:56:15.273Z,9.50
2023-04-17T03:58:45.274Z,9.60
2023-04-17T04:01:15.905Z,9.60
2023-04-17T04:04:01.874Z,9.60
2023-04-17T04:06:29.951Z,9.60
2023-04-17T04:08:58.082Z,9.50
2023-04-17T04:11:25.460Z,9.50
2023-04-17T04:13:52.876Z,9.60
2023-04-17T04:16:20.337Z,9.50
2023-04-17T04:18:49.395Z,9.50
2023-04-17T04:21:18.326Z,9.60
2023-04-17T04:23:45.912Z,9.70
2023-04-17T04:26:18.380Z,9.70
2023-04-17T04:28:51.479Z,9.70
2023-04-17T04:31:30.506Z,9.70
2023-04-17T04:34:01.311Z,9.80
2023-04-17T04:36:30.318Z,9.80
2023-04-17T04:39:26.916Z,9.90
2023-04-17T04:41:55.622Z,10.10
2023-04-17T04:44:27.090Z,10.10
2023-04-17T04:46:58.120Z,10.20
2023-04-17T04:49:26.580Z,10.10
2023-04-17T04:51:54.107Z,10.10
2023-04-17T04:54:27.385Z,10.00
2023-04-17T04:56:58.292Z,10.10
2023-04-17T04:59:25.773Z,10.10
2023-04-17T05:02:03.548Z,10.10
2023-04-17T05:04:31.454Z,10.20
2023-04-17T05:07:02.052Z,10.40
2023-04-17T05:09:31.880Z,10.50
2023-04-17T05:11:59.611Z,10.60
2023-04-17T05:14:27.633Z,10.80
2023-04-17T05:16:55.688Z,11.00
2023-04-17T05:19:23.483Z,11.10
2023-04-17T05:21:56.134Z,11.20
2023-04-17T05:24:24.431Z,11.30
2023-04-17T05:26:51.909Z,11.40
2023-04-17T05:29:20.712Z,11.40
2023-04-17T05:31:49.789Z,11.40
2023-04-17T05:34:38.057Z,11.50
2023-04-17T05:37:05.678Z,11.50
2023-04-17T05:39:34.354Z,11.50
2023-04-17T05:42:02.492Z,11.50
2023-04-17T05:44:31.037Z,11.50
2023-04-17T05:47:00.281Z,11.50
2023-04-17T05:49:27.724Z,11.60
2023-04-17T05:51:55.203Z,11.70
2023-04-17T05:54:22.906Z,11.70
2023-04-17T05:56:52.015Z,11.80
2023-04-17T05:59:19.536Z,11.80
2023-04-17T06:01:47.088Z,11.80
2023-04-17T06:04:20.145Z,11.90
2023-04-17T06:06:49.252Z,11.90
2023-04-17T06:09:16.976Z,11.90
2023-04-17T06:11:44.392Z,12.00
2023-04-17T06:14:12.717Z,12.00
2023-04-17T06:16:40.569Z,12.10
2023-04-17T06:19:09.174Z,12.10
2023-04-17T06:21:36.697Z,12.10
2023-04-17T06:24:04.244Z,12.10
2023-04-17T06:26:31.640Z,12.20
2023-04-17T06:28:59.116Z,12.20
2023-04-17T06:31:29.714Z,12.10
2023-04-17T06:33:58.117Z,12.20
2023-04-17T06:36:29.556Z,12.20
2023-04-17T06:38:58.879Z,12.30
2023-04-17T06:41:26.311Z,12.40
2023-04-17T06:43:54.693Z,12.60
2023-04-17T06:46:23.003Z,12.80
2023-04-17T06:48:52.289Z,13.00
2023-04-17T06:51:21.746Z,13.30
2023-04-17T06:53:49.150Z,13.50
2023-04-17T06:56:16.878Z,13.70
2023-04-17T06:58:45.818Z,13.80
2023-04-17T07:01:14.102Z,13.90
2023-04-17T07:03:43.160Z,13.90
2023-04-17T07:06:11.008Z,13.90
2023-04-17T07:08:38.904Z,14.00
2023-04-17T07:11:06.612Z,14.10
2023-04-17T07:13:34.037Z,14.20
2023-04-17T07:16:01.712Z,14.30
2023-04-17T07:18:29.702Z,14.40
2023-04-17T07:20:57.229Z,14.60
2023-04-17T07:23:24.643Z,14.60
2023-04-17T07:25:52.081Z,14.50
2023-04-17T07:28:19.608Z,14.50
2023-04-17T07:30:47.224Z,14.60
2023-04-17T07:33:14.644Z,14.50
2023-04-17T07:35:43.505Z,14.60
2023-04-17T07:38:11.147Z,14.90
2023-04-17T07:40:39.477Z,15.00
2023-04-17T07:43:06.901Z,15.00
2023-04-17T07:45:37.264Z,15.20
2023-04-17T07:48:06.212Z,15.40
2023-04-17T07:50:33.723Z,15.70
2023-04-17T07:53:01.279Z,15.90
2023-04-17T07:55:28.798Z,16.20
2023-04-17T07:57:56.588Z,16.70
2023-04-17T08:00:24.605Z,17.20
2023-04-17T08:02:52.480Z,17.80
2023-04-17T08:05:20.146Z,18.30
2023-04-17T08:07:47.567Z,18.50
2023-04-17T08:10:15.449Z,18.80
2023-04-17T08:12:42.824Z,18.90
2023-04-17T08:15:10.671Z,19.00
2023-04-17T08:17:38.111Z,19.10
2023-04-17T08:20:10.552Z,19.30
2023-04-17T08:22:41.664Z,19.30
2023-04-17T08:25:10.048Z,19.20
2023-04-17T08:27:41.448Z,19.10
2023-04-17T08:30:13.040Z,18.70
2023-04-17T08:32:46.420Z,18.50
2023-04-17T08:35:15.420Z,18.10
2023-04-17T08:37:46.785Z,17.80
2023-04-17T08:40:15.397Z,17.30
2023-04-17T08:42:43.519Z,17.20
2023-04-17T08:45:13.154Z,16.90
2023-04-17T08:47:42.455Z,16.90
2023-04-17T08:50:18.467Z,16.80
2023-04-17T08:52:47.979Z,16.80
2023-04-17T08:55:18.137Z,16.60
2023-04-17T08:58:04.979Z,16.40
2023-04-17T09:00:38.750Z,16.40
2023-04-17T09:03:11.234Z,16.30
2023-04-17T09:05:41.822Z,16.10
2023-04-17T09:08:14.377Z,16.30
2023-04-17T09:10:42.967Z,16.40
2023-04-17T09:13:16.141Z,16.40
2023-04-17T09:15:46.607Z,16.30
2023-04-17T09:18:32.816Z,16.30
2023-04-17T09:21:01.615Z,16.20
2023-04-17T09:23:31.184Z,16.30
2023-04-17T09:26:10.440Z,16.30
2023-04-17T09:28:41.495Z,16.40
2023-04-17T09:31:17.860Z,16.50
2023-04-17T09:33:59.431Z,16.70
2023-04-17T09:36:32.085Z,16.90
2023-04-17T09:39:03.560Z,17.10
2023-04-17T09:41:39.379Z,17.40
2023-04-17T09:44:06.933Z,17.70
2023-04-17T09:46:48.612Z,18.20
2023-04-17T09:49:23.523Z,18.70
2023-04-17T09:51:52.514Z,19.50
2023-04-17T09:54:23.047Z,20.00
2023-04-17T09:56:52.363Z,20.20
2023-04-17T09:59:20.063Z,21.00
2023-04-17T10:01:47.470Z,22.00
2023-04-17T10:04:15.651Z,23.40
2023-04-17T10:06:43.298Z,24.00
2023-04-17T10:09:10.742Z,25.10
2023-04-17T10:11:41.739Z,25.70
2023-04-17T10:14:13.798Z,25.90
2023-04-17T10:16:44.917Z,25.70
2023-04-17T10:19:32.040Z,25.70
2023-04-17T10:22:20.608Z,25.20
2023-04-17T10:24:53.441Z,24.80
2023-04-17T10:27:27.494Z,25.40
2023-04-17T10:29:59.271Z,25.40
2023-04-17T10:32:31.155Z,25.80
2023-04-17T10:34:59.689Z,26.70
2023-04-17T10:37:51.788Z,27.20
2023-04-17T10:40:31.704Z,27.10
2023-04-17T10:43:06.611Z,26.00
2023-04-17T10:46:22.099Z,25.70
2023-04-17T10:48:52.682Z,25.10
2023-04-17T10:51:29.351Z,24.70
2023-04-17T10:54:00.947Z,23.90
2023-04-17T10:56:39.182Z,23.70
2023-04-17T10:59:08.917Z,23.70
2023-04-17T11:01:59.579Z,24.30
2023-04-17T11:04:30.770Z,24.10
2023-04-17T11:06:58.687Z,24.00
2023-04-17T11:09:28.368Z,23.70
2023-04-17T11:11:59.870Z,23.80
2023-04-17T11:14:27.670Z,23.60
2023-04-17T11:16:56.105Z,22.90
2023-04-17T11:19:25.723Z,22.40
2023-04-17T11:21:57.223Z,22.10
2023-04-17T11:24:26.663Z,22.00
2023-04-17T11:26:56.223Z,22.30
2023-04-17T11:29:24.610Z,22.00
2023-04-17T11:31:54.043Z,21.50
2023-04-17T11:34:22.533Z,21.10
2023-04-17T11:36:56.322Z,20.80
2023-04-17T11:39:25.809Z,20.60
2023-04-17T11:41:53.461Z,20.60
2023-04-17T11:44:21.207Z,20.60
2023-04-17T11:46:52.624Z,21.00
2023-04-17T11:49:37.479Z,21.20
2023-04-17T11:52:05.756Z,21.80
2023-04-17T11:54:37.931Z,21.80
2023-04-17T11:57:06.310Z,21.40
2023-04-17T11:59:35.846Z,20.90
2023-04-17T12:02:04.074Z,20.90
2023-04-17T12:04:35.018Z,20.90
2023-04-17T12:07:06.916Z,21.00
2023-04-17T12:09:35.641Z,21.30
2023-04-17T12:12:07.543Z,21.40
2023-04-17T12:14:35.491Z,21.30
2023-04-17T12:17:02.851Z,21.20
2023-04-17T12:19:31.952Z,20.90
2023-04-17T12:21:59.718Z,20.60
2023-04-17T12:24:27.259Z,20.50
2023-04-17T12:26:54.903Z,20.80
2023-04-17T12:29:36.273Z,20.80
2023-04-17T12:32:10.787Z,20.70
2023-04-17T12:34:38.435Z,20.40
2023-04-17T12:37:06.015Z,20.20
2023-04-17T12:39:33.392Z,20.40
2023-04-17T12:42:04.177Z,20.40
2023-04-17T12:44:31.559Z,20.30
2023-04-17T12:46:59.004Z,20.20
2023-04-17T12:49:26.385Z,20.40
2023-04-17T12:51:53.956Z,20.40
2023-04-17T12:54:21.424Z,20.30
2023-04-17T12:56:48.884Z,20.10
2023-04-17T12:59:16.750Z,20.10
2023-04-17T13:01:44.309Z,20.10
2023-04-17T13:04:14.817Z,20.20
2023-04-17T13:06:42.563Z,20.00
2023-04-17T13:09:10.248Z,19.90
2023-04-17T13:11:37.746Z,20.00
2023-04-17T13:14:05.097Z,19.90
2023-04-17T13:16:32.498Z,20.20
2023-04-17T13:18:59.943Z,20.40
2023-04-17T13:21:27.579Z,20.60
2023-04-17T13:23:54.996Z,20.80
2023-04-17T13:26:22.349Z,20.70
2023-04-17T13:28:49.786Z,20.90
2023-04-17T13:31:17.273Z,20.80
2023-04-17T13:33:44.902Z,20.60
2023-04-17T13:36:12.453Z,20.50
2023-04-17T13:38:39.848Z,20.40
2023-04-17T13:41:08.086Z,20.30
2023-04-17T13:43:35.579Z,20.30
2023-04-17T13:46:03.039Z,20.30
2023-04-17T13:48:30.511Z,20.30
2023-04-17T13:50:57.905Z,20.10
2023-04-17T13:53:25.368Z,20.00
2023-04-17T13:55:52.801Z,19.70
2023-04-17T13:58:20.585Z,19.60
2023-04-17T14:00:48.207Z,19.40
2023-04-17T14:03:15.756Z,19.30
2023-04-17T14:05:43.414Z,19.30
2023-04-17T14:08:11.032Z,19.40
2023-04-17T14:10:38.437Z,19.40
2023-04-17T14:13:07.063Z,19.30
2023-04-17T14:15:34.494Z,19.20
2023-04-17T14:18:02.028Z,19.00
2023-04-17T14:20:29.604Z,19.00
2023-04-17T14:22:57.029Z,19.00
2023-04-17T14:25:24.453Z,19.10
2023-04-17T14:27:52.560Z,19.10
2023-04-17T14:30:20.178Z,19.10
2023-04-17T14:32:49.574Z,19.30
2023-04-17T14:35:17.124Z,19.30
2023-04-17T14:37:44.539Z,19.40
2023-04-17T14:40:12.521Z,19.40
2023-04-17T14:42:53.069Z,19.50
2023-04-17T14:45:21.849Z,19.60
2023-04-17T14:47:49.407Z,19.60
2023-04-17T14:50:17.815Z,19.60
2023-04-17T14:52:45.390Z,19.40
2023-04-17T14:55:13.296Z,19.40
2023-04-17T14:57:40.735Z,19.30
2023-04-17T15:00:10.018Z,19.20
2023-04-17T15:02:39.396Z,19.10
2023-04-17T15:05:09.882Z,19.10
2023-04-17T15:07:38.827Z,19.10
2023-04-17T15:10:09.686Z,19.00
2023-04-17T15:12:37.755Z,19.00
2023-04-17T15:15:06.471Z,19.10
2023-04-17T15:17:35.732Z,19.10
2023-04-17T15:20:04.185Z,19.20
2023-04-17T15:22:32.348Z,19.10
2023-04-17T15:24:59.922Z,19.10
2023-04-17T15:27:27.434Z,18.90
2023-04-17T15:29:54.812Z,18.80
2023-04-17T15:32:22.309Z,18.80
2023-04-17T15:34:51.178Z,18.80
2023-04-17T15:37:20.792Z,18.80
2023-04-17T15:39:48.454Z,18.80
2023-04-17T15:42:15.904Z,18.80
2023-04-17T15:44:43.344Z,18.90
2023-04-17T15:47:10.744Z,19.00
2023-04-17T15:49:38.160Z,19.00
2023-04-17T15:52:06.432Z,19.00
2023-04-17T15:54:33.941Z,18.90
2023-04-17T15:57:01.321Z,18.90
2023-04-17T15:59:28.702Z,18.80
2023-04-17T16:01:56.303Z,18.60
2023-04-17T16:04:23.899Z,18.60
2023-04-17T16:06:51.577Z,18.60
2023-04-17T16:09:23.404Z,18.50
2023-04-17T16:11:51.413Z,18.40
2023-04-17T16:14:18.791Z,18.30
2023-04-17T16:16:46.172Z,18.30
2023-04-17T16:19:13.861Z,18.30
2023-04-17T16:21:42.356Z,18.20
2023-04-17T16:24:09.804Z,18.20
2023-04-17T16:26:40.242Z,18.10
2023-04-17T16:29:07.629Z,18.10
2023-04-17T16:31:35.080Z,18.00
2023-04-17T16:34:03.089Z,18.00
2023-04-17T16:36:32.801Z,18.00
2023-04-17T16:39:02.373Z,17.90
2023-04-17T16:41:31.006Z,17.80
2023-04-17T16:43:58.510Z,17.70
2023-04-17T16:46:35.547Z,17.70
2023-04-17T16:49:14.486Z,17.70
2023-04-17T16:51:42.574Z,17.80
2023-04-17T16:54:10.081Z,17.80
2023-04-17T16:56:37.536Z,17.70
2023-04-17T16:59:05.385Z,17.60
2023-04-17T17:01:33.015Z,17.60
2023-04-17T17:04:00.551Z,17.60
2023-04-17T17:06:28.108Z,17.50
2023-04-17T17:08:55.710Z,17.40
2023-04-17T17:11:23.736Z,17.40
2023-04-17T17:13:53.049Z,17.40
2023-04-17T17:16:21.159Z,17.30
2023-04-17T17:18:49.064Z,17.30
2023-04-17T17:21:16.662Z,17.20
2023-04-17T17:23:44.079Z,17.10
2023-04-17T17:26:11.447Z,17.10
2023-04-17T17:28:41.148Z,17.00
2023-04-17T17:31:09.330Z,16.90
2023-04-17T17:33:37.111Z,16.80
2023-04-17T17:36:05.566Z,16.70
2023-04-17T17:38:33.863Z,16.70
2023-04-17T17:41:01.235Z,16.70
2023-04-17T17:43:28.656Z,16.60
2023-04-17T17:45:56.163Z,16.50
2023-04-17T17:48:23.571Z,16.40
2023-04-17T17:50:54.681Z,16.30
2023-04-17T17:53:26.298Z,16.30
2023-04-17T17:55:56.047Z,16.20
2023-04-17T17:58:23.788Z,16.10
2023-04-17T18:00:51.525Z,16.10
2023-04-17T18:03:19.438Z,16.00
2023-04-17T18:05:47.483Z,15.90
2023-04-17T18:08:15.179Z,15.80
2023-04-17T18:10:42.757Z,15.80
2023-04-17T18:13:10.147Z,15.70
2023-04-17T18:15:37.577Z,15.70
2023-04-17T18:18:05.150Z,15.60
2023-04-17T18:20:36.629Z,15.60
2023-04-17T18:23:04.093Z,15.50
2023-04-17T18:25:31.692Z,15.50
2023-04-17T18:27:59.048Z,15.40
2023-04-17T18:30:26.511Z,15.30
2023-04-17T18:32:53.890Z,15.20
2023-04-17T18:35:21.301Z,15.10
2023-04-17T18:37:49.541Z,15.20
2023-04-17T18:40:17.042Z,15.30
2023-04-17T18:42:44.454Z,15.30
2023-04-17T18:45:15.763Z,15.30
2023-04-17T18:47:43.457Z,15.30
2023-04-17T18:50:11.404Z,15.30
2023-04-17T18:52:42.625Z,15.20
2023-04-17T18:55:11.908Z,15.20
2023-04-17T18:57:39.506Z,15.20
2023-04-17T19:00:07.757Z,15.10
2023-04-17T19:02:36.353Z,15.10
2023-04-17T19:05:04.592Z,15.10
2023-04-17T19:07:32.067Z,15.10
2023-04-17T19:09:59.489Z,15.00
2023-04-17T19:12:26.871Z,14.90
2023-04-17T19:14:57.102Z,15.00
2023-04-17T19:17:25.478Z,14.90
2023-04-17T19:19:52.927Z,14.80
2023-04-17T19:22:20.403Z,14.80
2023-04-17T19:24:50.126Z,14.80
2023-04-17T19:27:17.698Z,14.90
2023-04-17T19:29:45.927Z,14.80
2023-04-17T19:32:16.562Z,14.80
2023-04-17T19:34:44.435Z,14.70
2023-04-17T19:37:11.878Z,14.60
2023-04-17T19:39:39.372Z,14.70
2023-04-17T19:42:07.660Z,14.70
2023-04-17T19:44:35.103Z,14.70
2023-04-17T19:47:02.861Z,14.70
2023-04-17T19:49:31.320Z,14.70
2023-04-17T19:52:01.613Z,14.70
2023-04-17T19:54:29.541Z,14.70
2023-04-17T19:56:56.960Z,14.70
2023-04-17T19:59:24.630Z,14.70
2023-04-17T20:01:52.090Z,14.60
2023-04-17T20:04:19.779Z,14.60
2023-04-17T20:06:47.296Z,14.60
2023-04-17T20:09:15.401Z,14.60
2023-04-17T20:11:43.343Z,14.60
2023-04-17T20:14:11.286Z,14.60
2023-04-17T20:16:38.805Z,14.60
2023-04-17T20:19:06.204Z,14.60
2023-04-17T20:21:33.585Z,14.60
2023-04-17T20:24:01.603Z,14.50
2023-04-17T20:26:29.474Z,14.40
2023-04-17T20:28:56.879Z,14.40
2023-04-17T20:31:24.334Z,14.40
2023-04-17T20:33:51.863Z,14.40
2023-04-17T20:36:19.249Z,14.30
2023-04-17T20:38:46.789Z,14.30
2023-04-17T20:41:14.233Z,14.30
2023-04-17T20:43:41.932Z,14.20
2023-04-17T20:46:09.515Z,14.10
2023-04-17T20:48:36.945Z,14.00
2023-04-17T20:51:05.897Z,14.00
2023-04-17T20:53:33.372Z,14.00
2023-04-17T20:56:00.956Z,13.90
2023-04-17T20:58:28.354Z,13.90
2023-04-17T21:01:01.080Z,13.80
2023-04-17T21:03:33.005Z,13.70
2023-04-17T21:06:01.069Z,13.70
2023-04-17T21:08:29.238Z,13.60
2023-04-17T21:10:57.301Z,13.60
2023-04-17T21:13:24.723Z,13.50
2023-04-17T21:15:52.133Z,13.60
2023-04-17T21:18:19.716Z,13.60
2023-04-17T21:20:47.082Z,13.50
2023-04-17T21:23:14.809Z,13.50
2023-04-17T21:25:42.263Z,13.50
2023-04-17T21:28:09.645Z,13.50
2023-04-17T21:30:37.380Z,13.50
2023-04-17T21:33:04.964Z,13.50
2023-04-17T21:35:32.445Z,13.50
2023-04-17T21:37:59.828Z,13.40
2023-04-17T21:40:30.987Z,13.40
2023-04-17T21:43:01.629Z,13.40
2023-04-17T21:45:30.692Z,13.40
2023-04-17T21:47:58.211Z,13.30
2023-04-17T21:50:25.764Z,13.20
2023-04-17T21:52:53.144Z,13.20
2023-04-17T21:55:20.686Z,13.30
2023-04-17T21:57:48.028Z,13.30
2023-04-17T22:00:15.892Z,13.30
2023-04-17T22:02:43.434Z,13.30
2023-04-17T22:05:11.625Z,13.40
2023-04-17T22:07:53.841Z,13.40
2023-04-17T22:10:23.759Z,13.40
2023-04-17T22:12:51.300Z,13.40
2023-04-17T22:15:18.914Z,13.40
2023-04-17T22:17:46.429Z,13.40
2023-04-17T22:20:13.848Z,13.30
2023-04-17T22:22:41.212Z,13.30
2023-04-17T22:25:09.025Z,13.20
2023-04-17T22:27:36.377Z,13.20
2023-04-17T22:30:04.195Z,13.10
2023-04-17T22:32:33.922Z,13.00
2023-04-17T22:35:01.582Z,12.80
2023-04-17T22:37:29.048Z,12.70
2023-04-17T22:39:56.454Z,12.70
2023-04-17T22:42:23.852Z,12.60
2023-04-17T22:44:51.941Z,12.60
2023-04-17T22:47:21.560Z,12.50
2023-04-17T22:49:48.968Z,12.60
2023-04-17T22:52:16.330Z,12.60
2023-04-17T22:54:43.722Z,12.50
2023-04-17T22:57:11.374Z,12.40
2023-04-17T22:59:40.090Z,12.50
2023-04-17T23:02:08.271Z,12.40
2023-04-17T23:04:35.835Z,12.30
2023-04-17T23:07:03.233Z,12.20
2023-04-17T23:09:30.628Z,12.20
2023-04-17T23:11:58.037Z,12.20
2023-04-17T23:14:26.255Z,12.20
2023-04-17T23:16:53.671Z,12.20
2023-04-17T23:19:22.443Z,12.30
2023-04-17T23:21:49.954Z,12.50
2023-04-17T23:24:17.350Z,12.40
2023-04-17T23:26:44.788Z,12.30
2023-04-17T23:29:12.151Z,12.30
2023-04-17T23:31:39.593Z,12.30
2023-04-17T23:34:07.042Z,12.20
2023-04-17T23:36:34.442Z,12.20
2023-04-17T23:39:01.839Z,12.20
2023-04-17T23:41:29.666Z,12.10
2023-04-17T23:43:57.232Z,12.10
2023-04-17T23:46:24.655Z,12.00
2023-04-17T23:48:52.094Z,12.00
2023-04-17T23:51:19.463Z,11.90
2023-04-17T23:53:46.879Z,11.90
2023-04-17T23:56:14.291Z,12.00
2023-04-17T23:58:41.696Z,12.20
